createdAt,value
2022-09-16T00:00:59.317Z,14.00
2022-09-16T00:03:26.288Z,14.00
2022-09-16T00:05:53.836Z,13.90
2022-09-16T00:08:23.271Z,13.90
2022-09-16T00:10:50.808Z,13.90
2022-09-16T00:17:45.778Z,13.90
2022-09-16T00:20:12.601Z,13.80
2022-09-16T00:22:41.868Z,13.80
2022-09-16T00:25:11.379Z,13.80
2022-09-16T00:27:40.251Z,13.80
2022-09-16T00:30:09.916Z,13.80
2022-09-16T00:32:44.800Z,13.80
2022-09-16T00:35:11.838Z,13.70
2022-09-16T00:37:38.617Z,13.70
2022-09-16T00:40:08.121Z,13.70
2022-09-16T00:42:39.775Z,13.70
2022-09-16T00:45:21.620Z,13.60
2022-09-16T00:47:56.104Z,13.70
2022-09-16T00:50:45.555Z,13.60
2022-09-16T00:53:25.743Z,13.60
2022-09-16T00:55:56.896Z,13.60
2022-09-16T00:58:29.367Z,13.60
2022-09-16T01:00:58.413Z,13.50
2022-09-16T01:03:32.450Z,13.50
2022-09-16T01:05:59.316Z,13.50
2022-09-16T01:08:30.699Z,13.50
2022-09-16T01:10:59.810Z,13.50
2022-09-16T01:13:26.601Z,13.50
2022-09-16T01:16:05.446Z,13.50
2022-09-16T01:19:17.060Z,13.50
2022-09-16T01:21:52.557Z,13.40
2022-09-16T01:24:49.915Z,13.40
2022-09-16T01:27:35.462Z,13.40
2022-09-16T01:30:09.568Z,13.40
2022-09-16T01:33:05.086Z,13.40
2022-09-16T01:35:52.999Z,13.40
2022-09-16T01:38:35.586Z,13.40
2022-09-16T01:41:11.246Z,13.40
2022-09-16T01:44:10.187Z,13.30
2022-09-16T01:46:59.304Z,13.30
2022-09-16T01:50:01.065Z,13.30
2022-09-16T01:52:43.731Z,13.30
2022-09-16T01:55:21.109Z,13.30
2022-09-16T01:58:17.615Z,13.30
2022-09-16T02:00:46.059Z,13.30
2022-09-16T02:03:18.915Z,13.30
2022-09-16T02:05:58.963Z,13.30
2022-09-16T02:08:54.524Z,13.30
2022-09-16T02:11:21.922Z,13.20
2022-09-16T02:14:04.968Z,13.20
2022-09-16T02:16:56.045Z,13.20
2022-09-16T02:19:41.632Z,13.20
2022-09-16T02:22:16.107Z,13.20
2022-09-16T02:24:46.997Z,13.20
2022-09-16T02:27:18.308Z,13.10
2022-09-16T02:29:52.722Z,13.10
2022-09-16T02:32:22.993Z,13.10
2022-09-16T02:34:52.366Z,13.10
2022-09-16T02:37:29.071Z,13.10
2022-09-16T02:40:02.223Z,13.00
2022-09-16T02:42:32.498Z,13.00
2022-09-16T02:45:00.295Z,12.90
2022-09-16T02:47:39.251Z,13.00
2022-09-16T02:50:30.773Z,13.00
2022-09-16T02:53:04.766Z,13.00
2022-09-16T02:55:49.570Z,12.90
2022-09-16T02:58:16.371Z,13.00
2022-09-16T03:00:48.152Z,12.90
2022-09-16T03:03:20.699Z,12.90
2022-09-16T03:06:06.700Z,12.90
2022-09-16T03:08:34.707Z,12.90
2022-09-16T03:11:18.240Z,12.90
2022-09-16T03:14:03.223Z,12.80
2022-09-16T03:16:47.563Z,12.80
2022-09-16T03:19:25.975Z,12.80
2022-09-16T03:22:19.144Z,12.90
2022-09-16T03:25:12.197Z,12.90
2022-09-16T03:27:58.005Z,12.80
2022-09-16T03:30:24.771Z,12.80
2022-09-16T03:33:05.547Z,12.80
2022-09-16T03:35:40.447Z,12.80
2022-09-16T03:38:08.730Z,12.70
2022-09-16T03:40:37.290Z,12.80
2022-09-16T03:43:12.013Z,12.80
2022-09-16T03:45:42.756Z,12.80
2022-09-16T03:48:12.376Z,12.80
2022-09-16T03:50:41.801Z,12.80
2022-09-16T03:53:08.582Z,12.80
2022-09-16T03:55:37.861Z,12.80
2022-09-16T03:58:06.844Z,12.80
2022-09-16T04:00:36.953Z,12.90
2022-09-16T04:03:03.891Z,12.80
2022-09-16T04:05:30.984Z,12.90
2022-09-16T04:07:59.977Z,12.90
2022-09-16T04:10:29.711Z,12.90
2022-09-16T04:12:58.456Z,12.90
2022-09-16T04:15:30.193Z,12.80
2022-09-16T04:18:00.277Z,12.80
2022-09-16T04:24:52.436Z,12.70
2022-09-16T04:27:19.476Z,12.70
2022-09-16T04:29:48.737Z,12.70
2022-09-16T04:32:17.973Z,12.70
2022-09-16T04:34:46.807Z,12.70
2022-09-16T04:37:13.587Z,12.70
2022-09-16T04:39:40.349Z,12.70
2022-09-16T04:42:07.421Z,12.70
2022-09-16T04:44:36.279Z,12.70
2022-09-16T04:47:03.036Z,12.70
2022-09-16T04:49:31.918Z,12.60
2022-09-16T04:51:59.557Z,12.60
2022-09-16T04:54:29.426Z,12.60
2022-09-16T04:56:58.701Z,12.60
2022-09-16T04:59:25.451Z,12.60
2022-09-16T05:01:52.294Z,12.60
2022-09-16T05:04:19.259Z,12.60
2022-09-16T05:06:46.037Z,12.60
2022-09-16T05:09:13.619Z,12.60
2022-09-16T05:11:41.250Z,12.60
2022-09-16T05:14:14.547Z,12.60
2022-09-16T05:16:41.643Z,12.60
2022-09-16T05:19:11.553Z,12.70
2022-09-16T05:21:39.297Z,12.60
2022-09-16T05:24:10.916Z,12.60
2022-09-16T05:26:41.870Z,12.60
2022-09-16T05:29:12.272Z,12.60
2022-09-16T05:31:41.455Z,12.60
2022-09-16T05:34:28.507Z,12.60
2022-09-16T05:37:00.858Z,12.60
2022-09-16T05:39:28.027Z,12.60
2022-09-16T05:41:58.200Z,12.70
2022-09-16T05:44:26.553Z,12.60
2022-09-16T05:46:56.482Z,12.70
2022-09-16T05:49:23.953Z,12.60
2022-09-16T05:51:51.772Z,12.60
2022-09-16T05:54:19.331Z,12.60
2022-09-16T05:56:47.340Z,12.70
2022-09-16T05:59:19.959Z,12.70
2022-09-16T06:01:46.922Z,12.70
2022-09-16T06:04:15.266Z,12.70
2022-09-16T06:06:43.793Z,12.80
2022-09-16T06:09:18.762Z,12.80
2022-09-16T06:11:56.578Z,12.80
2022-09-16T06:14:29.870Z,12.80
2022-09-16T06:16:57.456Z,12.80
2022-09-16T06:19:24.401Z,12.90
2022-09-16T06:21:51.224Z,12.90
2022-09-16T06:24:22.118Z,12.90
2022-09-16T06:26:51.863Z,13.00
2022-09-16T06:29:18.791Z,13.00
2022-09-16T06:31:48.137Z,13.10
2022-09-16T06:34:18.842Z,13.10
2022-09-16T06:36:50.210Z,13.10
2022-09-16T06:39:19.686Z,13.00
2022-09-16T06:41:46.485Z,13.00
2022-09-16T06:44:13.283Z,13.10
2022-09-16T06:46:42.398Z,13.10
2022-09-16T06:49:11.117Z,13.10
2022-09-16T06:51:38.118Z,13.10
2022-09-16T06:54:07.167Z,13.10
2022-09-16T06:56:36.231Z,13.20
2022-09-16T06:59:03.777Z,13.30
2022-09-16T07:01:32.110Z,13.20
2022-09-16T07:04:05.355Z,13.20
2022-09-16T07:07:07.665Z,13.20
2022-09-16T07:09:22.393Z,13.20
2022-09-16T07:11:49.169Z,13.30
2022-09-16T07:14:16.097Z,13.30
2022-09-16T07:16:42.985Z,13.30
2022-09-16T07:19:10.094Z,13.30
2022-09-16T07:21:39.190Z,13.30
2022-09-16T07:24:06.017Z,13.30
2022-09-16T07:26:37.696Z,13.40
2022-09-16T07:29:06.575Z,13.40
2022-09-16T07:31:37.769Z,13.40
2022-09-16T07:34:07.981Z,13.50
2022-09-16T07:36:46.494Z,13.50
2022-09-16T07:39:15.542Z,13.60
2022-09-16T07:41:44.892Z,13.70
2022-09-16T07:44:14.497Z,13.70
2022-09-16T07:46:44.053Z,13.80
2022-09-16T07:49:17.050Z,14.30
2022-09-16T07:51:46.307Z,14.30
2022-09-16T07:54:15.864Z,14.60
2022-09-16T07:56:44.957Z,14.60
2022-09-16T07:59:18.415Z,14.90
2022-09-16T08:01:49.643Z,14.80
2022-09-16T08:04:18.774Z,14.70
2022-09-16T08:06:48.298Z,14.60
2022-09-16T08:12:04.660Z,14.50
2022-09-16T08:14:33.131Z,14.40
2022-09-16T08:17:03.408Z,14.40
2022-09-16T08:19:30.332Z,14.40
2022-09-16T08:21:57.198Z,14.40
2022-09-16T08:24:23.974Z,14.40
2022-09-16T08:26:53.621Z,14.40
2022-09-16T08:29:22.398Z,14.40
2022-09-16T08:31:49.239Z,14.50
2022-09-16T08:34:16.817Z,14.70
2022-09-16T08:36:46.211Z,14.80
2022-09-16T08:39:14.938Z,14.80
2022-09-16T08:42:23.376Z,15.40
2022-09-16T08:45:09.582Z,16.00
2022-09-16T08:48:11.583Z,16.20
2022-09-16T08:50:44.724Z,16.10
2022-09-16T08:53:26.967Z,16.40
2022-09-16T08:55:54.630Z,16.70
2022-09-16T08:58:24.946Z,16.60
2022-09-16T09:01:00.597Z,16.50
2022-09-16T09:03:30.745Z,16.20
2022-09-16T09:06:00.160Z,17.20
2022-09-16T09:08:45.300Z,18.40
2022-09-16T09:11:36.339Z,18.40
2022-09-16T09:14:18.308Z,18.00
2022-09-16T09:16:52.557Z,17.40
2022-09-16T09:19:41.135Z,16.90
2022-09-16T09:22:39.137Z,16.50
2022-09-16T09:25:17.829Z,16.30
2022-09-16T09:28:03.839Z,17.70
2022-09-16T09:30:33.343Z,18.00
2022-09-16T09:33:47.324Z,19.00
2022-09-16T09:36:36.491Z,18.90
2022-09-16T09:39:22.132Z,19.00
2022-09-16T09:41:51.629Z,19.00
2022-09-16T09:44:21.979Z,19.30
2022-09-16T09:46:56.881Z,19.00
2022-09-16T09:49:32.820Z,18.80
2022-09-16T09:52:13.740Z,18.90
2022-09-16T09:54:44.872Z,18.90
2022-09-16T09:57:25.033Z,18.80
2022-09-16T10:00:21.525Z,18.20
2022-09-16T10:02:50.073Z,18.00
2022-09-16T10:05:26.090Z,17.60
2022-09-16T10:07:59.317Z,17.40
2022-09-16T10:10:32.667Z,17.20
2022-09-16T10:13:11.183Z,17.10
2022-09-16T10:15:38.069Z,17.20
2022-09-16T10:18:14.470Z,17.10
2022-09-16T10:20:54.412Z,16.90
2022-09-16T10:23:29.651Z,16.70
2022-09-16T10:26:06.923Z,16.70
2022-09-16T10:28:33.887Z,16.80
2022-09-16T10:31:01.924Z,16.90
2022-09-16T10:33:35.924Z,16.80
2022-09-16T10:36:08.844Z,16.70
2022-09-16T10:38:45.094Z,16.60
2022-09-16T10:41:18.142Z,16.50
2022-09-16T10:44:00.492Z,16.60
2022-09-16T10:46:29.062Z,16.60
2022-09-16T10:49:01.357Z,16.70
2022-09-16T10:51:33.434Z,16.70
2022-09-16T10:54:06.408Z,16.60
2022-09-16T10:56:46.264Z,16.70
2022-09-16T10:59:18.590Z,16.90
2022-09-16T11:01:50.789Z,16.90
2022-09-16T11:04:20.912Z,16.80
2022-09-16T11:07:19.913Z,16.70
2022-09-16T11:09:56.515Z,16.60
2022-09-16T11:12:26.269Z,16.50
2022-09-16T11:15:17.605Z,16.50
2022-09-16T11:17:56.802Z,16.50
2022-09-16T11:20:40.832Z,16.60
2022-09-16T11:23:47.709Z,16.80
2022-09-16T11:26:39.359Z,16.80
2022-09-16T11:30:01.397Z,16.90
2022-09-16T11:33:01.020Z,17.10
2022-09-16T11:35:40.955Z,17.00
2022-09-16T11:38:42.448Z,17.00
2022-09-16T11:41:25.502Z,17.00
2022-09-16T11:44:23.975Z,17.00
2022-09-16T11:47:18.691Z,17.00
2022-09-16T11:50:13.352Z,17.10
2022-09-16T11:52:45.896Z,17.20
2022-09-16T11:55:37.953Z,17.20
2022-09-16T11:58:54.151Z,17.40
2022-09-16T12:01:42.129Z,17.40
2022-09-16T12:04:44.459Z,17.50
2022-09-16T12:07:31.318Z,17.40
2022-09-16T12:10:12.678Z,17.40
2022-09-16T12:12:47.175Z,17.30
2022-09-16T12:15:38.787Z,17.20
2022-09-16T12:18:17.903Z,17.10
2022-09-16T12:20:52.845Z,17.10
2022-09-16T12:23:31.124Z,17.10
2022-09-16T12:26:23.361Z,17.10
2022-09-16T12:29:15.058Z,17.10
2022-09-16T12:31:59.353Z,17.10
2022-09-16T12:34:38.544Z,17.20
2022-09-16T12:37:38.810Z,17.20
2022-09-16T12:40:14.823Z,17.20
2022-09-16T12:43:31.005Z,17.20
2022-09-16T12:46:28.493Z,17.30
2022-09-16T12:49:29.260Z,17.20
2022-09-16T12:52:15.615Z,17.10
2022-09-16T12:55:07.199Z,17.00
2022-09-16T12:57:37.888Z,17.00
2022-09-16T13:00:23.278Z,17.00
2022-09-16T13:02:55.663Z,16.90
2022-09-16T13:05:33.869Z,16.90
2022-09-16T13:08:18.982Z,16.90
2022-09-16T13:10:57.729Z,17.00
2022-09-16T13:13:59.192Z,17.00
2022-09-16T13:16:35.478Z,17.00
2022-09-16T13:19:21.239Z,17.00
2022-09-16T13:21:49.241Z,17.00
2022-09-16T13:24:33.469Z,17.00
2022-09-16T13:27:00.393Z,16.90
2022-09-16T13:29:39.691Z,16.90
2022-09-16T13:32:28.752Z,16.90
2022-09-16T13:35:23.256Z,16.90
2022-09-16T13:37:55.341Z,17.00
2022-09-16T13:40:25.057Z,17.00
2022-09-16T13:43:10.113Z,16.90
2022-09-16T13:45:40.726Z,17.00
2022-09-16T13:48:23.362Z,17.00
2022-09-16T13:51:07.277Z,17.00
2022-09-16T13:53:40.003Z,17.00
2022-09-16T13:56:17.178Z,17.00
2022-09-16T13:59:12.028Z,17.00
2022-09-16T14:01:56.027Z,17.10
2022-09-16T14:04:50.815Z,17.10
2022-09-16T14:07:29.572Z,17.20
2022-09-16T14:10:02.132Z,17.20
2022-09-16T14:12:39.064Z,17.20
2022-09-16T14:15:10.409Z,17.40
2022-09-16T14:17:51.177Z,17.40
2022-09-16T14:20:22.358Z,17.50
2022-09-16T14:22:59.876Z,17.40
2022-09-16T14:25:36.609Z,17.50
2022-09-16T14:28:22.372Z,17.40
2022-09-16T14:30:50.980Z,17.40
2022-09-16T14:33:44.757Z,17.40
2022-09-16T14:36:22.539Z,17.40
2022-09-16T14:39:03.662Z,17.40
2022-09-16T14:41:38.019Z,17.40
2022-09-16T14:44:22.798Z,17.40
2022-09-16T14:47:04.870Z,17.40
2022-09-16T14:49:37.836Z,17.50
2022-09-16T14:52:05.339Z,17.50
2022-09-16T14:54:44.220Z,17.60
2022-09-16T14:57:19.027Z,17.60
2022-09-16T14:59:46.308Z,17.60
2022-09-16T15:02:26.070Z,17.70
2022-09-16T15:05:02.317Z,17.60
2022-09-16T15:07:46.230Z,17.60
2022-09-16T15:10:49.971Z,17.50
2022-09-16T15:13:24.214Z,17.50
2022-09-16T15:15:56.006Z,17.50
2022-09-16T15:18:29.803Z,17.50
2022-09-16T15:21:12.987Z,17.50
2022-09-16T15:23:48.418Z,17.40
2022-09-16T15:26:25.038Z,17.40
2022-09-16T15:29:02.158Z,17.40
2022-09-16T15:31:38.848Z,17.40
2022-09-16T15:34:22.357Z,17.40
2022-09-16T15:36:55.360Z,17.40
2022-09-16T15:39:37.648Z,17.40
2022-09-16T15:42:14.146Z,17.40
2022-09-16T15:45:01.547Z,17.40
2022-09-16T15:47:40.388Z,17.50
2022-09-16T15:54:21.982Z,17.70
2022-09-16T15:56:58.903Z,17.60
2022-09-16T15:59:55.123Z,17.50
2022-09-16T16:02:45.530Z,17.50
2022-09-16T16:05:25.607Z,17.40
2022-09-16T16:07:54.895Z,17.20
2022-09-16T16:10:26.955Z,17.10
2022-09-16T16:12:55.776Z,17.10
2022-09-16T16:15:44.409Z,17.10
2022-09-16T16:18:12.318Z,17.00
2022-09-16T16:20:41.439Z,16.90
2022-09-16T16:23:08.289Z,16.90
2022-09-16T16:25:35.442Z,16.80
2022-09-16T16:28:04.739Z,16.80
2022-09-16T16:30:33.682Z,16.80
2022-09-16T16:33:02.604Z,16.80
2022-09-16T16:35:29.449Z,16.80
2022-09-16T16:37:56.275Z,16.80
2022-09-16T16:40:26.125Z,16.80
2022-09-16T16:42:55.701Z,16.70
2022-09-16T16:45:22.787Z,16.70
2022-09-16T16:47:51.941Z,16.70
2022-09-16T16:50:19.238Z,16.80
2022-09-16T16:52:53.292Z,16.70
2022-09-16T16:55:20.159Z,16.60
2022-09-16T16:57:46.963Z,16.60
2022-09-16T17:00:14.588Z,16.50
2022-09-16T17:02:44.592Z,16.40
2022-09-16T17:05:11.572Z,16.30
2022-09-16T17:07:38.439Z,16.30
2022-09-16T17:10:08.775Z,16.30
2022-09-16T17:12:37.650Z,16.20
2022-09-16T17:15:04.937Z,16.20
2022-09-16T17:17:32.259Z,16.10
2022-09-16T17:20:04.183Z,16.10
2022-09-16T17:22:31.051Z,16.00
2022-09-16T17:25:00.312Z,16.00
2022-09-16T17:27:30.280Z,16.00
2022-09-16T17:30:02.201Z,15.90
2022-09-16T17:32:29.085Z,15.90
2022-09-16T17:34:58.432Z,15.80
2022-09-16T17:37:25.241Z,15.80
2022-09-16T17:39:52.150Z,15.80
2022-09-16T17:42:20.462Z,15.70
2022-09-16T17:44:47.554Z,15.70
2022-09-16T17:47:14.888Z,15.70
2022-09-16T17:49:41.745Z,15.60
2022-09-16T17:52:13.332Z,15.60
2022-09-16T17:54:41.306Z,15.60
2022-09-16T17:57:10.297Z,15.50
2022-09-16T17:59:37.871Z,15.50
2022-09-16T18:02:04.763Z,15.50
2022-09-16T18:04:34.097Z,15.40
2022-09-16T18:07:00.958Z,15.40
2022-09-16T18:09:27.720Z,15.40
2022-09-16T18:11:54.548Z,15.30
2022-09-16T18:14:23.422Z,15.30
2022-09-16T18:16:52.839Z,15.30
2022-09-16T18:19:22.251Z,15.30
2022-09-16T18:21:49.052Z,15.20
2022-09-16T18:24:18.351Z,15.20
2022-09-16T18:26:49.127Z,15.20
2022-09-16T18:29:20.583Z,15.20
2022-09-16T18:31:49.202Z,15.10
2022-09-16T18:34:17.748Z,15.10
2022-09-16T18:36:45.266Z,15.10
2022-09-16T18:39:15.027Z,15.10
2022-09-16T18:41:45.861Z,15.10
2022-09-16T18:44:19.898Z,15.10
2022-09-16T18:46:52.915Z,15.00
2022-09-16T18:49:23.981Z,15.00
2022-09-16T18:51:54.070Z,15.00
2022-09-16T18:54:26.051Z,15.00
2022-09-16T18:56:56.035Z,15.00
2022-09-16T18:59:28.567Z,15.00
2022-09-16T19:01:58.664Z,15.00
2022-09-16T19:04:29.228Z,15.00
2022-09-16T19:06:59.310Z,15.00
2022-09-16T19:09:28.316Z,15.00
2022-09-16T19:11:57.566Z,15.00
2022-09-16T19:14:27.338Z,14.90
2022-09-16T19:16:55.067Z,14.90
2022-09-16T19:19:22.821Z,14.90
2022-09-16T19:21:52.206Z,14.90
2022-09-16T19:24:24.252Z,14.90
2022-09-16T19:26:54.183Z,14.80
2022-09-16T19:29:23.752Z,14.80
2022-09-16T19:31:52.508Z,14.80
2022-09-16T19:34:22.380Z,14.70
2022-09-16T19:36:49.937Z,14.60
2022-09-16T19:39:17.450Z,14.50
2022-09-16T19:41:45.150Z,14.40
2022-09-16T19:44:15.586Z,14.30
2022-09-16T19:46:49.410Z,14.40
2022-09-16T19:49:20.062Z,14.30
2022-09-16T19:51:48.377Z,14.20
2022-09-16T19:54:20.651Z,14.10
2022-09-16T19:56:50.642Z,14.10
2022-09-16T19:59:18.704Z,14.00
2022-09-16T20:01:48.328Z,13.90
2022-09-16T20:04:19.875Z,13.90
2022-09-16T20:06:47.413Z,13.80
2022-09-16T20:09:14.368Z,13.70
2022-09-16T20:11:44.619Z,13.60
2022-09-16T20:14:15.602Z,13.50
2022-09-16T20:16:42.910Z,13.50
2022-09-16T20:19:13.140Z,13.50
2022-09-16T20:21:41.130Z,13.40
2022-09-16T20:24:13.388Z,13.40
2022-09-16T20:26:40.378Z,13.40
2022-09-16T20:29:07.325Z,13.40
2022-09-16T20:31:35.913Z,13.30
2022-09-16T20:34:03.862Z,13.30
2022-09-16T20:36:32.318Z,13.30
2022-09-16T20:39:00.539Z,13.20
2022-09-16T20:41:31.404Z,13.20
2022-09-16T20:43:59.388Z,13.20
2022-09-16T20:46:28.713Z,13.20
2022-09-16T20:48:57.489Z,13.20
2022-09-16T20:51:28.494Z,13.20
2022-09-16T20:54:09.738Z,13.10
2022-09-16T20:56:39.421Z,13.10
2022-09-16T20:59:11.069Z,13.10
2022-09-16T21:01:39.808Z,13.00
2022-09-16T21:04:10.836Z,13.00
2022-09-16T21:06:37.612Z,13.00
2022-09-16T21:09:10.217Z,12.90
2022-09-16T21:11:40.768Z,12.80
2022-09-16T21:14:07.749Z,12.70
2022-09-16T21:16:38.793Z,12.70
2022-09-16T21:19:09.542Z,12.70
2022-09-16T21:21:38.664Z,12.70
2022-09-16T21:24:08.573Z,12.70
2022-09-16T21:26:41.921Z,12.70
2022-09-16T21:29:21.391Z,12.70
2022-09-16T21:31:49.107Z,12.70
2022-09-16T21:34:21.153Z,12.70
2022-09-16T21:36:49.683Z,12.70
2022-09-16T21:39:18.784Z,12.70
2022-09-16T21:41:46.937Z,12.70
2022-09-16T21:44:19.393Z,12.70
2022-09-16T21:46:49.614Z,12.70
2022-09-16T21:49:28.947Z,12.70
2022-09-16T21:51:58.945Z,12.70
2022-09-16T21:54:29.449Z,12.70
2022-09-16T21:57:01.064Z,12.70
2022-09-16T21:59:28.024Z,12.70
2022-09-16T22:01:56.091Z,12.70
2022-09-16T22:04:25.861Z,12.70
2022-09-16T22:06:56.404Z,12.60
2022-09-16T22:09:25.153Z,12.60
2022-09-16T22:11:52.118Z,12.70
2022-09-16T22:14:21.139Z,12.60
2022-09-16T22:16:47.908Z,12.70
2022-09-16T22:19:18.903Z,12.70
2022-09-16T22:21:47.982Z,12.70
2022-09-16T22:24:20.338Z,12.80
2022-09-16T22:26:51.252Z,12.80
2022-09-16T22:29:20.906Z,12.80
2022-09-16T22:31:48.079Z,12.80
2022-09-16T22:34:17.176Z,12.80
2022-09-16T22:36:46.278Z,12.70
2022-09-16T22:39:18.197Z,12.70
2022-09-16T22:41:47.206Z,12.70
2022-09-16T22:44:15.072Z,12.70
2022-09-16T22:46:50.523Z,12.70
2022-09-16T22:49:17.423Z,12.80
2022-09-16T22:51:49.001Z,12.70
2022-09-16T22:54:17.907Z,12.70
2022-09-16T22:56:47.146Z,12.70
2022-09-16T22:59:18.631Z,12.70
2022-09-16T23:01:46.045Z,12.80
2022-09-16T23:04:15.708Z,12.70
2022-09-16T23:06:43.258Z,12.70
2022-09-16T23:09:12.069Z,12.70
2022-09-16T23:11:41.514Z,12.70
2022-09-16T23:14:10.803Z,12.70
2022-09-16T23:16:42.471Z,12.70
2022-09-16T23:19:12.483Z,12.80
2022-09-16T23:21:40.425Z,12.80
2022-09-16T23:24:08.954Z,12.70
2022-09-16T23:26:42.520Z,12.80
2022-09-16T23:29:11.165Z,12.80
2022-09-16T23:31:40.733Z,12.80
2022-09-16T23:34:14.762Z,12.80
2022-09-16T23:36:44.096Z,12.80
2022-09-16T23:39:15.129Z,12.80
2022-09-16T23:41:45.430Z,12.80
2022-09-16T23:44:14.038Z,12.80
2022-09-16T23:46:43.542Z,12.80
2022-09-16T23:49:13.602Z,12.80
2022-09-16T23:51:40.679Z,12.80
2022-09-16T23:54:07.716Z,12.80
2022-09-16T23:56:34.557Z,12.80
2022-09-16T23:59:03.627Z,12.80
